EST,Max TemperatureF,Mean TemperatureF,Min TemperatureF,Max Dew PointF,MeanDew PointF,Min DewpointF,Max Humidity, Mean Humidity, Min Humidity, Max Sea Level PressureIn, Mean Sea Level PressureIn, Min Sea Level PressureIn, Max VisibilityMiles, Mean VisibilityMiles, Min VisibilityMiles, Max Wind SpeedMPH, Mean Wind SpeedMPH, Max Gust SpeedMPH,PrecipitationIn, CloudCover, Events, WindDirDegrees
2012-12-1,39,36,34,37,32,20,97,82,56,30.61,30.55,30.48,10,6,1,7,3,,0.04,8,Rain-Snow,58
2012-12-2,57,48,39,52,46,37,93,83,70,30.47,30.28,30.07,10,9,2,15,3,24,0.02,6,,199
2012-12-3,60,47,32,48,41,30,93,78,47,30.30,30.14,30.05,10,9,3,16,9,,0.00,2,,258
2012-12-4,55,42,30,51,39,28,100,90,74,30.33,30.24,30.03,10,5,0,9,2,17,0.00,7,Fog-Rain,189
2012-12-5,57,47,37,54,41,18,93,70,46,30.11,29.94,29.85,10,9,5,18,12,25,0.02,6,Rain,262
2012-12-6,39,30,21,18,17,14,88,59,36,30.32,30.27,30.13,10,10,10,18,8,23,0.00,0,,321
2012-12-7,46,34,21,42,33,17,93,83,66,30.31,30.17,30.06,10,10,5,7,1,,0.05,6,Rain,217
2012-12-8,50,47,44,48,44,43,100,93,87,30.04,29.94,29.84,10,4,0,7,2,,0.27,8,Fog-Rain,7
2012-12-9,50,44,37,45,38,30,100,87,48,30.28,30.13,29.96,10,5,0,14,4,,0.06,3,Fog-Rain,271
2012-12-10,62,52,42,59,55,39,94,92,87,30.14,29.73,29.51,10,5,1,18,10,26,1.63,8,Rain,203
2012-12-11,57,46,35,55,38,21,94,74,50,30.14,29.82,29.55,10,10,6,10,6,,0.04,5,Rain,299
2012-12-12,39,33,27,24,21,19,85,65,45,30.43,30.33,30.17,10,10,10,9,4,,0.00,0,,312
2012-12-13,45,35,25,27,24,21,89,74,42,30.47,30.39,30.31,10,10,9,4,0,,0.00,0,,10
2012-12-14,48,36,23,30,23,20,88,64,39,30.28,30.18,30.06,10,10,8,16,4,24,0.00,0,,252
2012-12-15,42,34,25,26,23,21,88,71,47,30.33,30.28,30.18,10,10,6,10,3,16,0.00,0,,38
2012-12-16,39,34,30,37,29,23,93,77,60,30.32,30.20,30.06,10,7,2,13,7,20,0.21,7,Rain-Snow,98
2012-12-17,46,42,39,45,43,37,93,92,87,30.04,29.91,29.76,6,3,1,14,10,25,0.37,8,Rain,71
2012-12-18,54,50,44,52,46,41,97,88,80,29.74,29.50,29.41,10,7,1,14,8,20,0.27,8,Rain,215
2012-12-19,46,42,39,40,32,29,85,66,54,30.00,29.64,29.44,10,10,10,21,14,30,0.00,8,,313
2012-12-20,41,37,33,36,32,28,93,81,68,30.19,30.13,30.02,10,10,6,12,6,,0.00,7,Rain,353
2012-12-21,55,46,37,52,41,29,94,85,67,30.04,29.50,29.14,10,8,1,26,11,41,0.57,8,Rain,135
2012-12-22,39,34,30,32,23,15,82,61,46,29.65,29.42,29.26,10,10,10,21,12,31,0.00,5,,260
2012-12-23,39,32,26,21,19,15,78,56,44,29.88,29.82,29.67,10,10,10,17,10,28,0.00,1,,258
2012-12-24,39,32,24,25,20,16,81,64,43,30.07,30.02,29.89,10,10,10,10,4,,0.00,1,,259
2012-12-25,35,32,28,32,28,20,93,87,72,30.21,30.04,29.98,10,6,1,10,3,,0.04,7,Rain-Snow,347
2012-12-26,39,31,23,34,25,16,89,75,65,30.30,30.18,29.89,10,9,5,20,7,32,0.34,5,Rain,37
2012-12-27,52,42,32,50,39,26,94,87,79,29.86,29.38,29.19,10,5,2,30,15,54,0.59,8,Rain-Snow,301
2012-12-28,37,32,26,27,21,18,81,67,52,30.02,29.85,29.61,10,10,10,18,12,25,0.00,3,,295
2012-12-29,39,32,24,36,28,20,93,84,70,30.02,29.66,29.31,10,7,0,18,6,32,0.90,6,Fog-Rain-Snow,41
2012-12-30,30,26,23,28,20,9,93,74,55,29.97,29.62,29.36,10,9,1,20,15,32,0.01,4,Snow,302
2012-12-31,33,26,19,24,17,9,78,68,60,30.06,29.96,29.80,10,10,10,15,9,22,0.00,3,,246